Avoca, PA (18641)

8:26 AM EDT on September 27, 2016 (GMT -0400)
Duryea | | Change Station

Elev 709 ft 41.34 °N, 75.76 °W | Updated 15 seconds ago

Scattered Clouds
Scattered Clouds
57.0 °F
Feels Like 57.0 °F
N
0.0
Wind Variable Wind from West

Today
High -- | Low -- °F
--% Chance of Precip.
Yesterday
High -- | Low -- °F
Precip. -- in
Pressure 29.94 in
Visibility 4.0 miles
Clouds Scattered Clouds 300 ft
Dew Point 57 °F
Humidity 99%
Rainfall 0.05 in
Snow Depth Not available.
6:56 AM 6:50 PM
Waning Crescent, 12% visible
SPECI KAVP 271217Z AUTO 23005KT 4SM BR SCT003 14/14 A2994 RMK AO2 T01440139
Pressure 29.94 in
Visibility 4.0 miles
Clouds Scattered Clouds 300 ft
Dew Point 57 °F
Humidity 99%
Rainfall 0.05 in
Snow Depth Not available.
6:56 AM 6:50 PM
Waning Crescent, 12% visible
SPECI KAVP 271217Z AUTO 23005KT 4SM BR SCT003 14/14 A2994 RMK AO2 T01440139

10-Day Weather Forecast

Almanac

Astronomy

Sep. 27, 2016 Rise Set
Actual Time
Civil Twilight
Nautical Twilight
Astronomical Twilight
Moon
Length of Visible Light
Length of Day
Tomorrow will be .
, % of the Moon is Illuminated

Today's Extremes

State Highs State Lows

Community

WunderPhotos

Upload Photos

1,942,069 photos uploaded!

WunderBlog® & News

Nearby

Air Quality

  Air Quality AQ Index Pollutant
Not available.

Snow Depth

Station Depth Elevation

Earthquake Activity

City Distance Mag. Time & Date
Minimum magnitude displayed is 2.5.

Coastal Water Temperatures

Place Temperature

Stations

Nearby Weather Stations

Station Location Temp. Windchill Dew Point Humidity Wind Precip. Elev Updated Type
                   

Watches & Warnings

There are currently no watches in effect.